Maersk_kyrenia — VRGM8 — position and weather

sailwx.info

Track history (hours):
 
Tides and Currents Weather Stations Pressure Air Temp Water Temp Dewpoint Dewpoint Depression Visibility Wind Speed Wind Dir Waves Ship Positions

Maersk_kyrenia

Last reported at 2018-Jun-19 10:30 UTC. Time now 2018-Jun-19 10:54 UTC.
Position N 46°20' E 030°40'.

Length 300 m; draft 11.4 m.

Type: Ship (hazmat cat A). MMSI: 477733600.

Date/timePositionNaut miles runAvg speedWind from/ knotsBaromVisibWave heightAir tempDewpointWater temp
2018-Jun-19 10:30N 46°20' E 030°40'0 0.0
2018-Jun-19 09:39N 46°20' E 030°40'0 0.0
2018-Jun-19 09:30N 46°20' E 030°40'0 0.0
2018-Jun-19 08:39N 46°20' E 030°40'0 0.0
2018-Jun-19 08:30N 46°20' E 030°40'0 0.0
2018-Jun-19 07:39N 46°20' E 030°40'0 0.0
2018-Jun-19 07:31N 46°20' E 030°40'0 0.0
2018-Jun-19 06:39N 46°20' E 030°40'0 0.0
2018-Jun-19 06:30N 46°20' E 030°40'0 0.0
2018-Jun-19 05:38N 46°20' E 030°40'0 0.0
2018-Jun-19 05:31N 46°20' E 030°40'0 0.0
2018-Jun-19 04:55N 46°20' E 030°40'1 1.4
2018-Jun-19 04:30N 46°19' E 030°40'3 6.7
2018-Jun-19 04:00N 46°18' E 030°45'3 5.9
2018-Jun-19 03:30N 46°18' E 030°49'4 7.7
2018-Jun-19 03:00N 46°18' E 030°55'4 8.4
2018-Jun-19 02:30N 46°22' E 030°55'5 9.3
2018-Jun-19 02:00N 46°27' E 030°55'4 8.8
2018-Jun-19 01:30N 46°31' E 030°55'4 7.6
2018-Jun-19 01:00N 46°33' E 030°60'4 7.7
2018-Jun-19 00:30N 46°37' E 031°01'2 0.8
2018-Jun-18 21:37N 46°39' E 031°01'0 0.0
2018-Jun-18 21:10N 46°39' E 031°01'0 0.0
2018-Jun-18 15:49N 46°39' E 031°01'0 0.0
2018-Jun-18 14:55N 46°39' E 031°01'0 0.0
2018-Jun-18 14:01N 46°39' E 031°01'0 0.0
2018-Jun-18 13:40N 46°39' E 031°01'0 0.0
2018-Jun-18 13:19N 46°39' E 031°01'0 0.0
2018-Jun-18 12:10N 46°39' E 031°01'0 0.0
2018-Jun-18 11:58N 46°39' E 031°01'0 0.0
2018-Jun-18 09:01N 46°39' E 031°01'0 0.0
2018-Jun-18 08:49N 46°39' E 031°01'0 0.0
2018-Jun-18 08:22N 46°39' E 031°01'0 0.0
2018-Jun-18 07:57N 46°39' E 031°01'0 0.0
2018-Jun-18 07:10N 46°39' E 031°01'0 0.0
2018-Jun-18 07:00N 46°39' E 031°01'0 0.0
2018-Jun-18 05:53N 46°39' E 031°01'0 0.0
2018-Jun-18 04:15N 46°39' E 031°01'0 0.6
2018-Jun-18 04:00N 46°39' E 031°01'3 6.4
2018-Jun-18 03:30N 46°36' E 031°01'4 8.8
2018-Jun-18 03:00N 46°32' E 030°58'1 1.0
2018-Jun-18 02:30N 46°32' E 030°58'0 0.0
2018-Jun-18 02:00N 46°32' E 030°58'0 0.0
2018-Jun-18 01:30N 46°32' E 030°58'0 0.0
2018-Jun-18 01:00N 46°32' E 030°58'0 0.0
2018-Jun-18 00:30N 46°32' E 030°58'0 0.1
2018-Jun-18 00:00N 46°32' E 030°58'0 0.0
2018-Jun-17 23:30N 46°32' E 030°58'0 0.0
2018-Jun-17 23:00N 46°32' E 030°58'0 0.0
2018-Jun-17 22:30N 46°32' E 030°58'0 0.1
2018-Jun-17 22:00N 46°32' E 030°58'2 4.0
2018-Jun-17 21:30N 46°30' E 030°57'612.4
2018-Jun-17 21:00N 46°23' E 030°57'713.1
2018-Jun-17 20:30N 46°17' E 030°58'713.6
2018-Jun-17 20:00N 46°12' E 031°04'17213.2
2018-Jun-17 07:00N 44°12' E 034°00'13613.9 080 / 121008.610.8 24.2 23.3
2018-Jun-16 21:12N 44°21' E 037°10'313.4
2018-Jun-16 20:59N 44°22' E 037°14'613.4
2018-Jun-16 20:30N 44°25' E 037°22'713.5
2018-Jun-16 20:00N 44°28' E 037°31'713.5
2018-Jun-16 19:30N 44°31' E 037°39'713.8
2018-Jun-16 19:00N 44°35' E 037°47'510.6
2018-Jun-16 18:30N 44°40' E 037°50'4 8.7
2018-Jun-16 18:00N 44°44' E 037°48'0 0.7
2018-Jun-16 17:28N 44°44' E 037°47'0 0.0
2018-Jun-16 16:58N 44°44' E 037°47'0 0.0
2018-Jun-16 16:28N 44°44' E 037°47'0 0.0
2018-Jun-16 15:58N 44°44' E 037°47'0 0.0
2018-Jun-16 15:28N 44°44' E 037°47'0 0.0
2018-Jun-16 15:01N 44°44' E 037°47'0 0.0
2018-Jun-16 14:31N 44°44' E 037°47'0 0.0
2018-Jun-16 14:01N 44°44' E 037°47'0 0.0
2018-Jun-16 13:30N 44°44' E 037°47'0 0.0
2018-Jun-16 13:00N 44°44' E 037°47'0 0.0
2018-Jun-16 12:30N 44°44' E 037°47'0 0.0
2018-Jun-16 11:57N 44°44' E 037°47'0 0.0
2018-Jun-16 11:30N 44°44' E 037°47'0 0.0
2018-Jun-16 11:00N 44°44' E 037°47'0 0.0
2018-Jun-16 10:30N 44°44' E 037°47'0 0.0
2018-Jun-16 10:00N 44°44' E 037°47'0 0.0
2018-Jun-16 09:30N 44°44' E 037°47'0 0.0
2018-Jun-16 09:00N 44°44' E 037°47'0 0.0
2018-Jun-16 08:30N 44°44' E 037°47'0 0.0
2018-Jun-16 08:00N 44°44' E 037°47'0 0.0
2018-Jun-16 07:30N 44°44' E 037°47'0 0.0
2018-Jun-16 07:00N 44°44' E 037°47'0 0.0
2018-Jun-16 06:30N 44°44' E 037°47'0 0.0
2018-Jun-16 06:00N 44°44' E 037°47'0 0.0
2018-Jun-16 05:30N 44°44' E 037°47'0 0.0
2018-Jun-16 05:00N 44°44' E 037°47'0 0.0
2018-Jun-16 04:30N 44°44' E 037°47'0 0.0
2018-Jun-16 04:00N 44°44' E 037°47'0 0.0
2018-Jun-16 03:30N 44°44' E 037°47'0 0.0
2018-Jun-16 03:00N 44°44' E 037°47'0 0.0
2018-Jun-16 02:30N 44°44' E 037°47'0 0.0
2018-Jun-16 02:00N 44°44' E 037°47'0 0.0
2018-Jun-16 01:30N 44°44' E 037°47'0 0.0
2018-Jun-16 01:00N 44°44' E 037°47'0 0.0
2018-Jun-16 00:30N 44°44' E 037°47'0 0.0
2018-Jun-16 00:00N 44°44' E 037°47'0 0.0
2018-Jun-15 23:30N 44°44' E 037°47'0 0.0
2018-Jun-15 23:00N 44°44' E 037°47'0 0.0
2018-Jun-15 22:30N 44°44' E 037°47'0 0.0
2018-Jun-15 22:00N 44°44' E 037°47'0 0.0
2018-Jun-15 21:30N 44°44' E 037°47'0 0.0
2018-Jun-15 21:00N 44°44' E 037°47'0 0.0
2018-Jun-15 20:27N 44°44' E 037°47'0 0.0
2018-Jun-15 20:00N 44°44' E 037°47'0 0.0
2018-Jun-15 19:30N 44°44' E 037°47'0 0.0
2018-Jun-15 19:00N 44°44' E 037°47'0 0.0
2018-Jun-15 18:30N 44°44' E 037°47'0 0.0
2018-Jun-15 18:00N 44°44' E 037°47'0 0.0
2018-Jun-15 17:30N 44°44' E 037°47'0 0.0
2018-Jun-15 17:00N 44°44' E 037°47'0 0.0
2018-Jun-15 16:30N 44°44' E 037°47'0 0.0
2018-Jun-15 16:00N 44°44' E 037°47'0 0.0
2018-Jun-15 15:30N 44°44' E 037°47'0 0.0
2018-Jun-15 15:00N 44°44' E 037°47'0 0.0
2018-Jun-15 14:30N 44°44' E 037°47'0 0.0
2018-Jun-15 14:00N 44°44' E 037°47'0 0.0
2018-Jun-15 13:30N 44°44' E 037°47'0 0.0
2018-Jun-15 13:00N 44°44' E 037°47'0 0.0
2018-Jun-15 12:30N 44°44' E 037°47'0 0.0
2018-Jun-15 12:00N 44°44' E 037°47'0 0.0
2018-Jun-15 11:30N 44°44' E 037°47'0 0.0
2018-Jun-15 11:00N 44°44' E 037°47'0 0.0
2018-Jun-15 10:30N 44°44' E 037°47'0 0.0
2018-Jun-15 10:00N 44°44' E 037°47'0 0.0
2018-Jun-15 09:30N 44°44' E 037°47'0 0.0
2018-Jun-15 09:00N 44°44' E 037°47'0 0.0
2018-Jun-15 08:30N 44°44' E 037°47'0 0.0
2018-Jun-15 08:00N 44°44' E 037°47'0 0.0
2018-Jun-15 07:30N 44°44' E 037°47'0 0.0
2018-Jun-15 07:00N 44°44' E 037°47'0 0.0
2018-Jun-15 06:24N 44°44' E 037°47'0 0.0
2018-Jun-15 06:00N 44°44' E 037°47'0 0.0
2018-Jun-15 05:30N 44°44' E 037°47'0 0.0
2018-Jun-15 05:00N 44°44' E 037°47'0 0.0
2018-Jun-15 04:29N 44°44' E 037°47'0 0.0
2018-Jun-15 03:59N 44°44' E 037°47'0 0.0
2018-Jun-15 03:29N 44°44' E 037°47'0 0.0
2018-Jun-15 02:59N 44°44' E 037°47'0 0.0
2018-Jun-15 02:29N 44°44' E 037°47'0 0.0
2018-Jun-15 01:59N 44°44' E 037°47'0 0.0
2018-Jun-15 01:29N 44°44' E 037°47'0 0.0
2018-Jun-15 00:59N 44°44' E 037°47'0 0.0
2018-Jun-15 00:29N 44°44' E 037°47'0 0.0
2018-Jun-14 23:59N 44°44' E 037°47'0 0.0
2018-Jun-14 23:29N 44°44' E 037°47'0 0.0
2018-Jun-14 22:59N 44°44' E 037°47'0 0.0
2018-Jun-14 22:29N 44°44' E 037°47'0 0.0
2018-Jun-14 21:59N 44°44' E 037°47'0 0.0
2018-Jun-14 21:29N 44°44' E 037°47'0 0.0
2018-Jun-14 20:59N 44°44' E 037°47'0 0.0
2018-Jun-14 20:26N 44°44' E 037°47'0 0.0
2018-Jun-14 19:59N 44°44' E 037°47'0 0.0
2018-Jun-14 19:29N 44°44' E 037°47'0 0.0
2018-Jun-14 18:59N 44°44' E 037°47'0 0.0
2018-Jun-14 18:29N 44°44' E 037°47'0 0.0
2018-Jun-14 18:01N 44°44' E 037°47'0 0.5
2018-Jun-14 17:30N 44°44' E 037°47'2 3.8
2018-Jun-14 17:00N 44°42' E 037°49'5 9.4
2018-Jun-14 16:31N 44°38' E 037°51'4 7.4
2018-Jun-14 16:00N 44°34' E 037°51'4 8.9
2018-Jun-14 15:30N 44°30' E 037°48'2 4.6
2018-Jun-14 15:00N 44°29' E 037°45'4 7.5
2018-Jun-14 14:30N 44°27' E 037°41'714.4
2018-Jun-14 14:00N 44°24' E 037°32'714.6
2018-Jun-14 13:30N 44°21' E 037°22'714.4
2018-Jun-14 13:00N 44°18' E 037°13'714.2
2018-Jun-14 12:30N 44°15' E 037°04'714.1
2018-Jun-14 12:00N 44°12' E 036°55'1314.3
2018-Jun-14 12:00N 44°12' E 036°54'813.1 090 / 81005.910.8 26.022.323.5
2018-Jun-14 11:25N 44°08' E 036°45'4413.7
2018-Jun-14 08:14N 43°48' E 035°51'514.1
2018-Jun-14 07:54N 43°45' E 035°46'714.1
2018-Jun-14 07:24N 43°42' E 035°37'9013.9
2018-Jun-14 00:53N 43°01' E 033°46'613.5
2018-Jun-14 00:27N 42°58' E 033°39'613.5
2018-Jun-14 00:01N 42°55' E 033°32'913.4
2018-Jun-13 23:20N 42°51' E 033°21'913.4
2018-Jun-13 22:41N 42°47' E 033°10'213.1
2018-Jun-13 22:30N 42°46' E 033°08'713.2
2018-Jun-13 22:00N 42°43' E 032°60'713.4
2018-Jun-13 21:28N 42°40' E 032°51'613.3
2018-Jun-13 21:00N 42°37' E 032°44'713.2
2018-Jun-13 20:29N 42°34' E 032°35'613.2
2018-Jun-13 20:00N 42°31' E 032°28'713.2
2018-Jun-13 19:30N 42°28' E 032°20'713.2
2018-Jun-13 19:00N 42°25' E 032°12'4268.4
2018-Jun-13 19:00N 42°24' E 032°06'4 6.8 090 / 151004.710.8 18.5 21.2
2018-Jun-13 18:26N 42°21' E 032°03'1013.7
2018-Jun-13 17:42N 42°17' E 031°50'313.8
2018-Jun-13 17:30N 42°15' E 031°47'713.9
2018-Jun-13 17:01N 42°12' E 031°39'813.9
2018-Jun-13 16:24N 42°08' E 031°29'614.0
2018-Jun-13 16:00N 42°06' E 031°22'714.0
2018-Jun-13 15:30N 42°03' E 031°14'714.0
2018-Jun-13 15:00N 41°59' E 031°05'714.0
2018-Jun-13 14:30N 41°56' E 030°57'815.4
2018-Jun-13 14:00N 41°53' E 030°48'816.3
2018-Jun-13 13:30N 41°49' E 030°38'816.1
2018-Jun-13 13:00N 41°45' E 030°29'816.1
2018-Jun-13 12:30N 41°41' E 030°19'816.2
2018-Jun-13 12:00N 41°38' E 030°09'916.4
2018-Jun-13 11:26N 41°34' E 029°58'716.5
2018-Jun-13 11:00N 41°31' E 029°50'1216.5
2018-Jun-13 10:18N 41°26' E 029°35'616.2
2018-Jun-13 09:55N 41°23' E 029°28'715.9
2018-Jun-13 09:30N 41°19' E 029°21'816.3
2018-Jun-13 09:01N 41°16' E 029°11'2211.1
2018-Jun-13 07:00N 40°56' E 028°58'14 7.0
2018-Jun-13 04:59N 40°47' E 028°44'0 0.6
2018-Jun-13 04:30N 40°46' E 028°44'0 0.6
2018-Jun-13 03:55N 40°46' E 028°44'0 0.6
2018-Jun-13 03:30N 40°46' E 028°44'1 0.7
2018-Jun-13 02:41N 40°46' E 028°45'0 0.7
2018-Jun-13 02:28N 40°46' E 028°45'0 0.7
2018-Jun-13 02:00N 40°45' E 028°45'0 0.8
2018-Jun-13 01:30N 40°45' E 028°46'0 0.9
2018-Jun-13 01:00N 40°45' E 028°46'0 0.9
2018-Jun-13 00:30N 40°45' E 028°47'0 0.9
2018-Jun-13 00:00N 40°45' E 028°47'0 0.9
2018-Jun-12 23:30N 40°44' E 028°48'1 1.0
2018-Jun-12 22:46N 40°44' E 028°49'0 1.5
2018-Jun-12 22:29N 40°45' E 028°49'5 7.0
2018-Jun-12 21:42N 40°46' E 028°56'314.2
2018-Jun-12 21:28N 40°46' E 029°01'204 4.1
2018-Jun-10 20:00N 38°48' E 025°24'5819.3 340 / 181004.910.8 25.2 22.9
2018-Jun-10 16:58N 37°51' E 025°40'1020.7
2018-Jun-10 16:29N 37°42' E 025°45'1020.5
2018-Jun-10 16:00N 37°32' E 025°48'1020.2
2018-Jun-10 15:31N 37°23' E 025°54'13020.0
2018-Jun-10 09:00N 35°42' E 027°36'26021.7 280 / 171005.710.8 27.5 23.9
2018-Jun-09 21:00N 32°24' E 031°00'   280 / 121009.710.8 27.0 25.3
Track history (hours):
 
Tides and Currents Weather Stations Pressure Air Temp Water Temp Dewpoint Dewpoint Depression Visibility Wind Speed Wind Dir Waves Ship Positions

Maersk_kyrenia

Last reported at 2018-Jun-19 10:30 UTC. Time now 2018-Jun-19 10:54 UTC.
Position N 46°20' E 030°40'.

Length 300 m; draft 11.4 m.

Type: Ship (hazmat cat A). MMSI: 477733600.

Date/timePositionNaut miles runAvg speedWind from/ knotsBaromVisibWave heightAir tempDewpointWater temp
2018-Jun-19 10:30N 46°20' E 030°40'0 0.0
2018-Jun-19 09:39N 46°20' E 030°40'0 0.0
2018-Jun-19 09:30N 46°20' E 030°40'0 0.0
2018-Jun-19 08:39N 46°20' E 030°40'0 0.0
2018-Jun-19 08:30N 46°20' E 030°40'0 0.0
2018-Jun-19 07:39N 46°20' E 030°40'0 0.0
2018-Jun-19 07:31N 46°20' E 030°40'0 0.0
2018-Jun-19 06:39N 46°20' E 030°40'0 0.0
2018-Jun-19 06:30N 46°20' E 030°40'0 0.0
2018-Jun-19 05:38N 46°20' E 030°40'0 0.0
2018-Jun-19 05:31N 46°20' E 030°40'0 0.0
2018-Jun-19 04:55N 46°20' E 030°40'1 1.4
2018-Jun-19 04:30N 46°19' E 030°40'3 6.7
2018-Jun-19 04:00N 46°18' E 030°45'3 5.9
2018-Jun-19 03:30N 46°18' E 030°49'4 7.7
2018-Jun-19 03:00N 46°18' E 030°55'4 8.4
2018-Jun-19 02:30N 46°22' E 030°55'5 9.3
2018-Jun-19 02:00N 46°27' E 030°55'4 8.8
2018-Jun-19 01:30N 46°31' E 030°55'4 7.6
2018-Jun-19 01:00N 46°33' E 030°60'4 7.7
2018-Jun-19 00:30N 46°37' E 031°01'2 0.8
2018-Jun-18 21:37N 46°39' E 031°01'0 0.0
2018-Jun-18 21:10N 46°39' E 031°01'0 0.0
2018-Jun-18 15:49N 46°39' E 031°01'0 0.0
2018-Jun-18 14:55N 46°39' E 031°01'0 0.0
2018-Jun-18 14:01N 46°39' E 031°01'0 0.0
2018-Jun-18 13:40N 46°39' E 031°01'0 0.0
2018-Jun-18 13:19N 46°39' E 031°01'0 0.0
2018-Jun-18 12:10N 46°39' E 031°01'0 0.0
2018-Jun-18 11:58N 46°39' E 031°01'0 0.0
2018-Jun-18 09:01N 46°39' E 031°01'0 0.0
2018-Jun-18 08:49N 46°39' E 031°01'0 0.0
2018-Jun-18 08:22N 46°39' E 031°01'0 0.0
2018-Jun-18 07:57N 46°39' E 031°01'0 0.0
2018-Jun-18 07:10N 46°39' E 031°01'0 0.0
2018-Jun-18 07:00N 46°39' E 031°01'0 0.0
2018-Jun-18 05:53N 46°39' E 031°01'0 0.0
2018-Jun-18 04:15N 46°39' E 031°01'0 0.6
2018-Jun-18 04:00N 46°39' E 031°01'3 6.4
2018-Jun-18 03:30N 46°36' E 031°01'4 8.8
2018-Jun-18 03:00N 46°32' E 030°58'1 1.0
2018-Jun-18 02:30N 46°32' E 030°58'0 0.0
2018-Jun-18 02:00N 46°32' E 030°58'0 0.0
2018-Jun-18 01:30N 46°32' E 030°58'0 0.0
2018-Jun-18 01:00N 46°32' E 030°58'0 0.0
2018-Jun-18 00:30N 46°32' E 030°58'0 0.1
2018-Jun-18 00:00N 46°32' E 030°58'0 0.0
2018-Jun-17 23:30N 46°32' E 030°58'0 0.0
2018-Jun-17 23:00N 46°32' E 030°58'0 0.0
2018-Jun-17 22:30N 46°32' E 030°58'0 0.1
2018-Jun-17 22:00N 46°32' E 030°58'2 4.0
2018-Jun-17 21:30N 46°30' E 030°57'612.4
2018-Jun-17 21:00N 46°23' E 030°57'713.1
2018-Jun-17 20:30N 46°17' E 030°58'713.6
2018-Jun-17 20:00N 46°12' E 031°04'17213.2
2018-Jun-17 07:00N 44°12' E 034°00'13613.9 080 / 121008.610.8 24.2 23.3
2018-Jun-16 21:12N 44°21' E 037°10'313.4
2018-Jun-16 20:59N 44°22' E 037°14'613.4
2018-Jun-16 20:30N 44°25' E 037°22'713.5
2018-Jun-16 20:00N 44°28' E 037°31'713.5
2018-Jun-16 19:30N 44°31' E 037°39'713.8
2018-Jun-16 19:00N 44°35' E 037°47'510.6
2018-Jun-16 18:30N 44°40' E 037°50'4 8.7
2018-Jun-16 18:00N 44°44' E 037°48'0 0.7
2018-Jun-16 17:28N 44°44' E 037°47'0 0.0
2018-Jun-16 16:58N 44°44' E 037°47'0 0.0
2018-Jun-16 16:28N 44°44' E 037°47'0 0.0
2018-Jun-16 15:58N 44°44' E 037°47'0 0.0
2018-Jun-16 15:28N 44°44' E 037°47'0 0.0
2018-Jun-16 15:01N 44°44' E 037°47'0 0.0
2018-Jun-16 14:31N 44°44' E 037°47'0 0.0
2018-Jun-16 14:01N 44°44' E 037°47'0 0.0
2018-Jun-16 13:30N 44°44' E 037°47'0 0.0
2018-Jun-16 13:00N 44°44' E 037°47'0 0.0
2018-Jun-16 12:30N 44°44' E 037°47'0 0.0
2018-Jun-16 11:57N 44°44' E 037°47'0 0.0
2018-Jun-16 11:30N 44°44' E 037°47'0 0.0
2018-Jun-16 11:00N 44°44' E 037°47'0 0.0
2018-Jun-16 10:30N 44°44' E 037°47'0 0.0
2018-Jun-16 10:00N 44°44' E 037°47'0 0.0
2018-Jun-16 09:30N 44°44' E 037°47'0 0.0
2018-Jun-16 09:00N 44°44' E 037°47'0 0.0
2018-Jun-16 08:30N 44°44' E 037°47'0 0.0
2018-Jun-16 08:00N 44°44' E 037°47'0 0.0
2018-Jun-16 07:30N 44°44' E 037°47'0 0.0
2018-Jun-16 07:00N 44°44' E 037°47'0 0.0
2018-Jun-16 06:30N 44°44' E 037°47'0 0.0
2018-Jun-16 06:00N 44°44' E 037°47'0 0.0
2018-Jun-16 05:30N 44°44' E 037°47'0 0.0
2018-Jun-16 05:00N 44°44' E 037°47'0 0.0
2018-Jun-16 04:30N 44°44' E 037°47'0 0.0
2018-Jun-16 04:00N 44°44' E 037°47'0 0.0
2018-Jun-16 03:30N 44°44' E 037°47'0 0.0
2018-Jun-16 03:00N 44°44' E 037°47'0 0.0
2018-Jun-16 02:30N 44°44' E 037°47'0 0.0
2018-Jun-16 02:00N 44°44' E 037°47'0 0.0
2018-Jun-16 01:30N 44°44' E 037°47'0 0.0
2018-Jun-16 01:00N 44°44' E 037°47'0 0.0
2018-Jun-16 00:30N 44°44' E 037°47'0 0.0
2018-Jun-16 00:00N 44°44' E 037°47'0 0.0
2018-Jun-15 23:30N 44°44' E 037°47'0 0.0
2018-Jun-15 23:00N 44°44' E 037°47'0 0.0
2018-Jun-15 22:30N 44°44' E 037°47'0 0.0
2018-Jun-15 22:00N 44°44' E 037°47'0 0.0
2018-Jun-15 21:30N 44°44' E 037°47'0 0.0
2018-Jun-15 21:00N 44°44' E 037°47'0 0.0
2018-Jun-15 20:27N 44°44' E 037°47'0 0.0
2018-Jun-15 20:00N 44°44' E 037°47'0 0.0
2018-Jun-15 19:30N 44°44' E 037°47'0 0.0
2018-Jun-15 19:00N 44°44' E 037°47'0 0.0
2018-Jun-15 18:30N 44°44' E 037°47'0 0.0
2018-Jun-15 18:00N 44°44' E 037°47'0 0.0
2018-Jun-15 17:30N 44°44' E 037°47'0 0.0
2018-Jun-15 17:00N 44°44' E 037°47'0 0.0
2018-Jun-15 16:30N 44°44' E 037°47'0 0.0
2018-Jun-15 16:00N 44°44' E 037°47'0 0.0
2018-Jun-15 15:30N 44°44' E 037°47'0 0.0
2018-Jun-15 15:00N 44°44' E 037°47'0 0.0
2018-Jun-15 14:30N 44°44' E 037°47'0 0.0
2018-Jun-15 14:00N 44°44' E 037°47'0 0.0
2018-Jun-15 13:30N 44°44' E 037°47'0 0.0
2018-Jun-15 13:00N 44°44' E 037°47'0 0.0
2018-Jun-15 12:30N 44°44' E 037°47'0 0.0
2018-Jun-15 12:00N 44°44' E 037°47'0 0.0
2018-Jun-15 11:30N 44°44' E 037°47'0 0.0
2018-Jun-15 11:00N 44°44' E 037°47'0 0.0
2018-Jun-15 10:30N 44°44' E 037°47'0 0.0
2018-Jun-15 10:00N 44°44' E 037°47'0 0.0
2018-Jun-15 09:30N 44°44' E 037°47'0 0.0
2018-Jun-15 09:00N 44°44' E 037°47'0 0.0
2018-Jun-15 08:30N 44°44' E 037°47'0 0.0
2018-Jun-15 08:00N 44°44' E 037°47'0 0.0
2018-Jun-15 07:30N 44°44' E 037°47'0 0.0
2018-Jun-15 07:00N 44°44' E 037°47'0 0.0
2018-Jun-15 06:24N 44°44' E 037°47'0 0.0
2018-Jun-15 06:00N 44°44' E 037°47'0 0.0
2018-Jun-15 05:30N 44°44' E 037°47'0 0.0
2018-Jun-15 05:00N 44°44' E 037°47'0 0.0
2018-Jun-15 04:29N 44°44' E 037°47'0 0.0
2018-Jun-15 03:59N 44°44' E 037°47'0 0.0
2018-Jun-15 03:29N 44°44' E 037°47'0 0.0
2018-Jun-15 02:59N 44°44' E 037°47'0 0.0
2018-Jun-15 02:29N 44°44' E 037°47'0 0.0
2018-Jun-15 01:59N 44°44' E 037°47'0 0.0
2018-Jun-15 01:29N 44°44' E 037°47'0 0.0
2018-Jun-15 00:59N 44°44' E 037°47'0 0.0
2018-Jun-15 00:29N 44°44' E 037°47'0 0.0
2018-Jun-14 23:59N 44°44' E 037°47'0 0.0
2018-Jun-14 23:29N 44°44' E 037°47'0 0.0
2018-Jun-14 22:59N 44°44' E 037°47'0 0.0
2018-Jun-14 22:29N 44°44' E 037°47'0 0.0
2018-Jun-14 21:59N 44°44' E 037°47'0 0.0
2018-Jun-14 21:29N 44°44' E 037°47'0 0.0
2018-Jun-14 20:59N 44°44' E 037°47'0 0.0
2018-Jun-14 20:26N 44°44' E 037°47'0 0.0
2018-Jun-14 19:59N 44°44' E 037°47'0 0.0
2018-Jun-14 19:29N 44°44' E 037°47'0 0.0
2018-Jun-14 18:59N 44°44' E 037°47'0 0.0
2018-Jun-14 18:29N 44°44' E 037°47'0 0.0
2018-Jun-14 18:01N 44°44' E 037°47'0 0.5
2018-Jun-14 17:30N 44°44' E 037°47'2 3.8
2018-Jun-14 17:00N 44°42' E 037°49'5 9.4
2018-Jun-14 16:31N 44°38' E 037°51'4 7.4
2018-Jun-14 16:00N 44°34' E 037°51'4 8.9
2018-Jun-14 15:30N 44°30' E 037°48'2 4.6
2018-Jun-14 15:00N 44°29' E 037°45'4 7.5
2018-Jun-14 14:30N 44°27' E 037°41'714.4
2018-Jun-14 14:00N 44°24' E 037°32'714.6
2018-Jun-14 13:30N 44°21' E 037°22'714.4
2018-Jun-14 13:00N 44°18' E 037°13'714.2
2018-Jun-14 12:30N 44°15' E 037°04'714.1
2018-Jun-14 12:00N 44°12' E 036°55'1314.3
2018-Jun-14 12:00N 44°12' E 036°54'813.1 090 / 81005.910.8 26.022.323.5
2018-Jun-14 11:25N 44°08' E 036°45'4413.7
2018-Jun-14 08:14N 43°48' E 035°51'514.1
2018-Jun-14 07:54N 43°45' E 035°46'714.1
2018-Jun-14 07:24N 43°42' E 035°37'9013.9
2018-Jun-14 00:53N 43°01' E 033°46'613.5
2018-Jun-14 00:27N 42°58' E 033°39'613.5
2018-Jun-14 00:01N 42°55' E 033°32'913.4
2018-Jun-13 23:20N 42°51' E 033°21'913.4
2018-Jun-13 22:41N 42°47' E 033°10'213.1
2018-Jun-13 22:30N 42°46' E 033°08'713.2
2018-Jun-13 22:00N 42°43' E 032°60'713.4
2018-Jun-13 21:28N 42°40' E 032°51'613.3
2018-Jun-13 21:00N 42°37' E 032°44'713.2
2018-Jun-13 20:29N 42°34' E 032°35'613.2
2018-Jun-13 20:00N 42°31' E 032°28'713.2
2018-Jun-13 19:30N 42°28' E 032°20'713.2
2018-Jun-13 19:00N 42°25' E 032°12'4268.4
2018-Jun-13 19:00N 42°24' E 032°06'4 6.8 090 / 151004.710.8 18.5 21.2
2018-Jun-13 18:26N 42°21' E 032°03'1013.7
2018-Jun-13 17:42N 42°17' E 031°50'313.8
2018-Jun-13 17:30N 42°15' E 031°47'713.9
2018-Jun-13 17:01N 42°12' E 031°39'813.9
2018-Jun-13 16:24N 42°08' E 031°29'614.0
2018-Jun-13 16:00N 42°06' E 031°22'714.0
2018-Jun-13 15:30N 42°03' E 031°14'714.0
2018-Jun-13 15:00N 41°59' E 031°05'714.0
2018-Jun-13 14:30N 41°56' E 030°57'815.4
2018-Jun-13 14:00N 41°53' E 030°48'816.3
2018-Jun-13 13:30N 41°49' E 030°38'816.1
2018-Jun-13 13:00N 41°45' E 030°29'816.1
2018-Jun-13 12:30N 41°41' E 030°19'816.2
2018-Jun-13 12:00N 41°38' E 030°09'916.4
2018-Jun-13 11:26N 41°34' E 029°58'716.5
2018-Jun-13 11:00N 41°31' E 029°50'1216.5
2018-Jun-13 10:18N 41°26' E 029°35'616.2
2018-Jun-13 09:55N 41°23' E 029°28'715.9
2018-Jun-13 09:30N 41°19' E 029°21'816.3
2018-Jun-13 09:01N 41°16' E 029°11'2211.1
2018-Jun-13 07:00N 40°56' E 028°58'14 7.0
2018-Jun-13 04:59N 40°47' E 028°44'0 0.6
2018-Jun-13 04:30N 40°46' E 028°44'0 0.6
2018-Jun-13 03:55N 40°46' E 028°44'0 0.6
2018-Jun-13 03:30N 40°46' E 028°44'1 0.7
2018-Jun-13 02:41N 40°46' E 028°45'0 0.7
2018-Jun-13 02:28N 40°46' E 028°45'0 0.7
2018-Jun-13 02:00N 40°45' E 028°45'0 0.8
2018-Jun-13 01:30N 40°45' E 028°46'0 0.9
2018-Jun-13 01:00N 40°45' E 028°46'0 0.9
2018-Jun-13 00:30N 40°45' E 028°47'0 0.9
2018-Jun-13 00:00N 40°45' E 028°47'0 0.9
2018-Jun-12 23:30N 40°44' E 028°48'1 1.0
2018-Jun-12 22:46N 40°44' E 028°49'0 1.5
2018-Jun-12 22:29N 40°45' E 028°49'5 7.0
2018-Jun-12 21:42N 40°46' E 028°56'314.2
2018-Jun-12 21:28N 40°46' E 029°01'204 4.1
2018-Jun-10 20:00N 38°48' E 025°24'5819.3 340 / 181004.910.8 25.2 22.9
2018-Jun-10 16:58N 37°51' E 025°40'1020.7
2018-Jun-10 16:29N 37°42' E 025°45'1020.5
2018-Jun-10 16:00N 37°32' E 025°48'1020.2
2018-Jun-10 15:31N 37°23' E 025°54'13020.0
2018-Jun-10 09:00N 35°42' E 027°36'26021.7 280 / 171005.710.8 27.5 23.9
2018-Jun-09 21:00N 32°24' E 031°00'   280 / 121009.710.8 27.0 25.3

Dump ship's entire track history